Main page
METAR-TAF:

METAR-TAF

Airports :

Newquay Cornwall, England

Cornwall Airport Newquay

latitude: 50-26N, longitude: 005-00W, elevation: 119 m

Current weather observation

The report was made 33 minutes ago, at 17:20 UTC
Wind 8 kt from the West, varying between West/Southwest and West/Northwest
Temperature 10°C
Humidity 62%
Pressure 1018 hPa
Visibility 10 km or more
Few clouds at a height of 4600 ft

METAR: EGHQ 281720Z 27008KT 240V300 9999 FEW046 10/03 Q1018

Time: 18:53 (17:53 UTC)

Forecast

The report was made 51 minutes ago, at 17:02 UTC
Forecast valid from 28 at 18 UTC to 28 at 21 UTC
Wind 6 kt from the West/Northwest
Visibility 10 km or more
Scattered clouds at a height of 2500 ft

TAF: EGHQ 281702Z 2818/2821 30006KT 9999 SCT025

Weather observations and forecasts of more than 4000 airports (METAR and TAF reports).

The available stations are represented by yellow and red dots on the map.

Hover mouse over dot to see the name of the station.

Then click to see weather observations and forecasts.

To change the map : click on the green buttons with a black cross to zoom in, on the green button with a dash to zoom out, or on the green arrows for adjacent maps.


METAR-TAF: